sensor_id;sensor_type;location;lat;lon;timestamp;P1;durP1;ratioP1;P2;durP2;ratioP2
74644;SDS011;63163;55.630;37.594;2023-04-16T19:46:43;12.2;;;5.3;;
74644;SDS011;63163;55.630;37.594;2023-04-16T19:47:43;14.5;;;5.6;;
74644;SDS011;63163;55.630;37.594;2023-04-16T19:48:44;10.7;;;5.5;;
74644;SDS011;63163;55.630;37.594;2023-04-16T19:49:44;16.2;;;9.0;;
74644;SDS011;63163;55.630;37.594;2023-04-16T19:50:45;16.2;;;9.0;;
74644;SDS011;63163;55.630;37.594;2023-04-16T19:51:45;17.1;;;7.8;;
74644;SDS011;63163;55.630;37.594;2023-04-16T19:52:46;10.5;;;5.7;;
74644;SDS011;63163;55.630;37.594;2023-04-16T19:53:47;12.5;;;5.8;;
74644;SDS011;63163;55.630;37.594;2023-04-16T19:54:47;12.3;;;5.5;;
74644;SDS011;63163;55.630;37.594;2023-04-16T19:55:48;14.8;;;6.2;;
74644;SDS011;63163;55.630;37.594;2023-04-16T19:56:48;18.6;;;5.9;;
74644;SDS011;63163;55.630;37.594;2023-04-16T19:57:50;15.0;;;5.8;;
74644;SDS011;63163;55.630;37.594;2023-04-16T19:58:51;12.1;;;5.2;;
74644;SDS011;63163;55.630;37.594;2023-04-16T19:59:51;14.0;;;5.6;;
74644;SDS011;63163;55.630;37.594;2023-04-16T20:00:52;12.2;;;5.9;;
74644;SDS011;63163;55.630;37.594;2023-04-16T20:01:53;12.6;;;5.8;;
74644;SDS011;63163;55.630;37.594;2023-04-16T20:02:53;10.0;;;5.4;;
74644;SDS011;63163;55.630;37.594;2023-04-16T20:03:54;11.3;;;5.4;;
74644;SDS011;63163;55.630;37.594;2023-04-16T20:04:54;11.7;;;5.5;;
74644;SDS011;63163;55.630;37.594;2023-04-16T20:05:55;10.7;;;5.4;;
74644;SDS011;63163;55.630;37.594;2023-04-16T20:06:55;10.1;;;5.4;;
74644;SDS011;63163;55.630;37.594;2023-04-16T20:07:56;12.5;;;5.5;;
74644;SDS011;63163;55.630;37.594;2023-04-16T20:08:56;12.3;;;5.6;;
74644;SDS011;63163;55.630;37.594;2023-04-16T20:09:57;12.8;;;5.5;;
74644;SDS011;63163;55.630;37.594;2023-04-16T20:10:57;11.1;;;5.7;;
74644;SDS011;63163;55.630;37.594;2023-04-16T20:11:58;10.4;;;5.6;;
74644;SDS011;63163;55.630;37.594;2023-04-16T20:12:59;14.7;;;6.5;;
74644;SDS011;63163;55.630;37.594;2023-04-16T20:14:00;13.4;;;5.8;;
74644;SDS011;63163;55.630;37.594;2023-04-16T20:15:00;12.0;;;5.9;;
74644;SDS011;63163;55.630;37.594;2023-04-16T20:16:01;11.9;;;5.5;;
74644;SDS011;63163;55.630;37.594;2023-04-16T20:17:02;15.8;;;5.9;;
74644;SDS011;63163;55.630;37.594;2023-04-16T20:18:03;12.1;;;5.4;;
74644;SDS011;63163;55.630;37.594;2023-04-16T20:19:04;12.2;;;5.6;;
74644;SDS011;63163;55.630;37.594;2023-04-16T20:20:05;12.6;;;5.6;;
74644;SDS011;63163;55.630;37.594;2023-04-16T20:21:09;10.3;;;5.6;;
74644;SDS011;63163;55.630;37.594;2023-04-16T20:22:10;11.1;;;5.4;;
74644;SDS011;63163;55.630;37.594;2023-04-16T20:23:10;12.3;;;5.5;;
74644;SDS011;63163;55.630;37.594;2023-04-16T20:24:11;12.8;;;5.6;;
74644;SDS011;63163;55.630;37.594;2023-04-16T20:25:11;13.1;;;5.8;;
74644;SDS011;63163;55.630;37.594;2023-04-16T20:26:13;11.2;;;5.9;;
74644;SDS011;63163;55.630;37.594;2023-04-16T20:27:14;9.2;;;5.5;;
74644;SDS011;63163;55.630;37.594;2023-04-16T20:28:16;12.8;;;5.8;;
74644;SDS011;63163;55.630;37.594;2023-04-16T20:29:20;15.3;;;6.2;;
74644;SDS011;63163;55.630;37.594;2023-04-16T20:30:21;12.1;;;5.8;;
74644;SDS011;63163;55.630;37.594;2023-04-16T20:31:23;10.7;;;5.9;;
74644;SDS011;63163;55.630;37.594;2023-04-16T20:32:24;12.5;;;6.0;;
74644;SDS011;63163;55.630;37.594;2023-04-16T20:33:24;9.9;;;5.5;;
74644;SDS011;63163;55.630;37.594;2023-04-16T20:34:25;10.6;;;6.1;;
74644;SDS011;63163;55.630;37.594;2023-04-16T20:35:26;12.2;;;5.7;;
74644;SDS011;63163;55.630;37.594;2023-04-16T20:36:27;12.9;;;6.1;;
74644;SDS011;63163;55.630;37.594;2023-04-16T20:37:28;14.8;;;6.2;;
74644;SDS011;63163;55.630;37.594;2023-04-16T20:38:28;12.7;;;6.7;;
74644;SDS011;63163;55.630;37.594;2023-04-16T20:39:31;11.7;;;6.2;;
74644;SDS011;63163;55.630;37.594;2023-04-16T20:40:41;13.1;;;6.0;;
74644;SDS011;63163;55.630;37.594;2023-04-16T20:41:44;10.3;;;5.8;;
74644;SDS011;63163;55.630;37.594;2023-04-16T20:42:46;11.5;;;6.0;;
74644;SDS011;63163;55.630;37.594;2023-04-16T20:43:46;12.1;;;6.5;;
74644;SDS011;63163;55.630;37.594;2023-04-16T20:44:49;12.6;;;6.4;;
74644;SDS011;63163;55.630;37.594;2023-04-16T20:45:54;12.8;;;6.5;;
74644;SDS011;63163;55.630;37.594;2023-04-16T20:46:55;12.2;;;6.7;;
74644;SDS011;63163;55.630;37.594;2023-04-16T20:47:56;14.8;;;6.3;;
74644;SDS011;63163;55.630;37.594;2023-04-16T20:48:56;12.6;;;7.0;;
74644;SDS011;63163;55.630;37.594;2023-04-16T20:49:57;13.0;;;6.8;;
74644;SDS011;63163;55.630;37.594;2023-04-16T20:51:01;14.3;;;6.4;;
74644;SDS011;63163;55.630;37.594;2023-04-16T20:52:03;12.7;;;6.2;;
74644;SDS011;63163;55.630;37.594;2023-04-16T20:53:03;13.5;;;6.4;;
74644;SDS011;63163;55.630;37.594;2023-04-16T20:54:04;14.3;;;6.3;;
74644;SDS011;63163;55.630;37.594;2023-04-16T20:55:05;13.9;;;6.3;;
74644;SDS011;63163;55.630;37.594;2023-04-16T20:56:07;14.6;;;7.0;;
74644;SDS011;63163;55.630;37.594;2023-04-16T20:57:08;11.9;;;6.1;;
74644;SDS011;63163;55.630;37.594;2023-04-16T20:58:08;12.0;;;6.4;;
74644;SDS011;63163;55.630;37.594;2023-04-16T20:59:09;14.6;;;7.5;;
74644;SDS011;63163;55.630;37.594;2023-04-16T21:00:10;13.3;;;7.2;;
74644;SDS011;63163;55.630;37.594;2023-04-16T21:01:11;10.9;;;6.0;;
74644;SDS011;63163;55.630;37.594;2023-04-16T21:02:12;9.4;;;6.0;;
74644;SDS011;63163;55.630;37.594;2023-04-16T21:03:13;14.1;;;6.9;;
74644;SDS011;63163;55.630;37.594;2023-04-16T21:04:13;12.7;;;6.8;;
74644;SDS011;63163;55.630;37.594;2023-04-16T21:05:14;13.0;;;6.3;;
74644;SDS011;63163;55.630;37.594;2023-04-16T21:06:15;13.2;;;6.5;;
74644;SDS011;63163;55.630;37.594;2023-04-16T21:07:16;14.6;;;6.2;;
74644;SDS011;63163;55.630;37.594;2023-04-16T21:08:17;15.6;;;7.1;;
74644;SDS011;63163;55.630;37.594;2023-04-16T21:09:18;14.5;;;7.9;;
74644;SDS011;63163;55.630;37.594;2023-04-16T21:10:18;14.8;;;7.4;;
74644;SDS011;63163;55.630;37.594;2023-04-16T21:11:19;12.7;;;6.9;;
74644;SDS011;63163;55.630;37.594;2023-04-16T21:12:19;14.4;;;6.4;;
74644;SDS011;63163;55.630;37.594;2023-04-16T21:13:20;12.6;;;6.0;;
74644;SDS011;63163;55.630;37.594;2023-04-16T21:14:21;12.3;;;5.9;;
74644;SDS011;63163;55.630;37.594;2023-04-16T21:15:21;13.4;;;6.4;;
74644;SDS011;63163;55.630;37.594;2023-04-16T21:16:22;14.8;;;6.2;;
74644;SDS011;63163;55.630;37.594;2023-04-16T21:17:22;14.6;;;6.2;;
74644;SDS011;63163;55.630;37.594;2023-04-16T21:18:23;12.8;;;6.1;;
74644;SDS011;63163;55.630;37.594;2023-04-16T21:19:23;11.1;;;6.2;;
74644;SDS011;63163;55.630;37.594;2023-04-16T21:20:24;12.7;;;6.6;;
74644;SDS011;63163;55.630;37.594;2023-04-16T21:21:24;14.5;;;6.6;;
74644;SDS011;63163;55.630;37.594;2023-04-16T21:22:26;10.8;;;6.0;;
74644;SDS011;63163;55.630;37.594;2023-04-16T21:23:27;12.1;;;6.2;;
74644;SDS011;63163;55.630;37.594;2023-04-16T21:24:27;10.6;;;5.7;;
74644;SDS011;63163;55.630;37.594;2023-04-16T21:25:28;12.2;;;6.3;;
74644;SDS011;63163;55.630;37.594;2023-04-16T21:26:29;13.5;;;6.3;;
74644;SDS011;63163;55.630;37.594;2023-04-16T21:27:29;12.8;;;6.0;;
74644;SDS011;63163;55.630;37.594;2023-04-16T21:28:30;15.1;;;6.8;;
74644;SDS011;63163;55.630;37.594;2023-04-16T21:29:30;11.6;;;6.4;;
74644;SDS011;63163;55.630;37.594;2023-04-16T21:30:31;11.1;;;5.9;;
74644;SDS011;63163;55.630;37.594;2023-04-16T21:31:32;14.1;;;6.5;;
74644;SDS011;63163;55.630;37.594;2023-04-16T21:32:32;15.5;;;6.4;;
74644;SDS011;63163;55.630;37.594;2023-04-16T21:33:33;10.5;;;6.2;;
74644;SDS011;63163;55.630;37.594;2023-04-16T21:34:33;11.9;;;5.7;;
74644;SDS011;63163;55.630;37.594;2023-04-16T21:35:34;12.4;;;6.4;;
74644;SDS011;63163;55.630;37.594;2023-04-16T21:36:34;13.5;;;6.9;;
74644;SDS011;63163;55.630;37.594;2023-04-16T21:37:35;13.4;;;7.1;;
74644;SDS011;63163;55.630;37.594;2023-04-16T21:38:35;14.9;;;6.5;;
74644;SDS011;63163;55.630;37.594;2023-04-16T21:39:36;12.7;;;6.5;;
74644;SDS011;63163;55.630;37.594;2023-04-16T21:40:37;12.8;;;6.3;;
74644;SDS011;63163;55.630;37.594;2023-04-16T21:41:37;14.5;;;6.5;;
74644;SDS011;63163;55.630;37.594;2023-04-16T21:42:38;14.8;;;6.6;;
74644;SDS011;63163;55.630;37.594;2023-04-16T21:43:41;12.9;;;6.4;;
74644;SDS011;63163;55.630;37.594;2023-04-16T21:44:41;11.6;;;6.1;;
74644;SDS011;63163;55.630;37.594;2023-04-16T21:45:42;14.9;;;6.2;;
74644;SDS011;63163;55.630;37.594;2023-04-16T21:46:42;12.5;;;6.7;;
74644;SDS011;63163;55.630;37.594;2023-04-16T21:47:43;11.8;;;6.4;;
74644;SDS011;63163;55.630;37.594;2023-04-16T21:48:43;12.1;;;6.6;;
74644;SDS011;63163;55.630;37.594;2023-04-16T21:49:44;11.5;;;6.4;;
74644;SDS011;63163;55.630;37.594;2023-04-16T21:50:44;14.6;;;6.3;;
74644;SDS011;63163;55.630;37.594;2023-04-16T21:51:45;14.3;;;6.1;;
74644;SDS011;63163;55.630;37.594;2023-04-16T21:52:45;14.6;;;6.8;;
74644;SDS011;63163;55.630;37.594;2023-04-16T21:53:46;12.5;;;6.7;;
74644;SDS011;63163;55.630;37.594;2023-04-16T21:54:46;12.0;;;5.8;;
74644;SDS011;63163;55.630;37.594;2023-04-16T21:55:47;14.4;;;6.2;;
74644;SDS011;63163;55.630;37.594;2023-04-16T21:56:48;11.9;;;6.0;;
74644;SDS011;63163;55.630;37.594;2023-04-16T21:57:48;13.0;;;6.4;;
74644;SDS011;63163;55.630;37.594;2023-04-16T21:58:49;12.8;;;6.7;;
74644;SDS011;63163;55.630;37.594;2023-04-16T21:59:49;15.5;;;6.4;;
74644;SDS011;63163;55.630;37.594;2023-04-16T22:00:50;13.5;;;6.3;;
74644;SDS011;63163;55.630;37.594;2023-04-16T22:01:51;11.8;;;6.0;;
74644;SDS011;63163;55.630;37.594;2023-04-16T22:02:51;11.6;;;6.1;;
74644;SDS011;63163;55.630;37.594;2023-04-16T22:03:54;13.8;;;6.7;;
74644;SDS011;63163;55.630;37.594;2023-04-16T22:04:55;14.1;;;6.5;;
74644;SDS011;63163;55.630;37.594;2023-04-16T22:05:55;10.2;;;6.3;;
74644;SDS011;63163;55.630;37.594;2023-04-16T22:06:56;13.1;;;6.7;;
74644;SDS011;63163;55.630;37.594;2023-04-16T22:07:57;15.4;;;6.6;;
74644;SDS011;63163;55.630;37.594;2023-04-16T22:08:57;12.9;;;6.2;;
74644;SDS011;63163;55.630;37.594;2023-04-16T22:09:58;12.3;;;6.4;;
74644;SDS011;63163;55.630;37.594;2023-04-16T22:10:59;13.3;;;6.1;;
74644;SDS011;63163;55.630;37.594;2023-04-16T22:12:00;11.2;;;6.3;;
74644;SDS011;63163;55.630;37.594;2023-04-16T22:13:01;13.0;;;6.6;;
74644;SDS011;63163;55.630;37.594;2023-04-16T22:14:02;11.0;;;6.2;;
74644;SDS011;63163;55.630;37.594;2023-04-16T22:15:08;13.0;;;6.2;;
74644;SDS011;63163;55.630;37.594;2023-04-16T22:16:09;12.4;;;6.6;;
74644;SDS011;63163;55.630;37.594;2023-04-16T22:17:10;11.8;;;6.5;;
74644;SDS011;63163;55.630;37.594;2023-04-16T22:18:10;13.4;;;7.0;;
74644;SDS011;63163;55.630;37.594;2023-04-16T22:19:11;12.6;;;6.8;;
74644;SDS011;63163;55.630;37.594;2023-04-16T22:20:13;14.7;;;8.1;;
74644;SDS011;63163;55.630;37.594;2023-04-16T22:21:14;13.8;;;6.6;;
74644;SDS011;63163;55.630;37.594;2023-04-16T22:22:15;12.9;;;6.6;;
74644;SDS011;63163;55.630;37.594;2023-04-16T22:23:15;12.4;;;7.2;;
74644;SDS011;63163;55.630;37.594;2023-04-16T22:24:16;11.3;;;6.6;;
74644;SDS011;63163;55.630;37.594;2023-04-16T22:25:17;11.1;;;6.6;;
74644;SDS011;63163;55.630;37.594;2023-04-16T22:26:17;14.6;;;6.7;;
74644;SDS011;63163;55.630;37.594;2023-04-16T22:27:18;12.8;;;6.4;;
74644;SDS011;63163;55.630;37.594;2023-04-16T22:28:18;14.2;;;6.6;;
74644;SDS011;63163;55.630;37.594;2023-04-16T22:29:19;13.5;;;6.4;;
74644;SDS011;63163;55.630;37.594;2023-04-16T22:30:19;15.8;;;6.9;;
74644;SDS011;63163;55.630;37.594;2023-04-16T22:31:20;13.8;;;6.7;;
74644;SDS011;63163;55.630;37.594;2023-04-16T22:32:20;13.1;;;6.6;;
74644;SDS011;63163;55.630;37.594;2023-04-16T22:33:21;13.5;;;6.6;;
74644;SDS011;63163;55.630;37.594;2023-04-16T22:34:22;15.1;;;7.3;;
74644;SDS011;63163;55.630;37.594;2023-04-16T22:35:22;12.5;;;6.3;;
74644;SDS011;63163;55.630;37.594;2023-04-16T22:36:23;14.6;;;7.0;;
74644;SDS011;63163;55.630;37.594;2023-04-16T22:37:23;13.3;;;6.4;;
74644;SDS011;63163;55.630;37.594;2023-04-16T22:38:24;12.4;;;6.5;;
74644;SDS011;63163;55.630;37.594;2023-04-16T22:39:25;11.7;;;6.5;;
74644;SDS011;63163;55.630;37.594;2023-04-16T22:40:25;12.9;;;6.8;;
74644;SDS011;63163;55.630;37.594;2023-04-16T22:41:25;14.1;;;6.6;;
74644;SDS011;63163;55.630;37.594;2023-04-16T22:42:26;11.6;;;6.8;;
74644;SDS011;63163;55.630;37.594;2023-04-16T22:43:26;12.0;;;6.4;;
74644;SDS011;63163;55.630;37.594;2023-04-16T22:44:27;11.8;;;7.1;;
74644;SDS011;63163;55.630;37.594;2023-04-16T22:45:27;14.4;;;7.0;;
74644;SDS011;63163;55.630;37.594;2023-04-16T22:46:28;12.4;;;7.3;;
74644;SDS011;63163;55.630;37.594;2023-04-16T22:47:29;13.2;;;6.8;;
74644;SDS011;63163;55.630;37.594;2023-04-16T22:48:29;14.8;;;7.2;;
74644;SDS011;63163;55.630;37.594;2023-04-16T22:49:30;18.1;;;6.6;;
74644;SDS011;63163;55.630;37.594;2023-04-16T22:50:32;12.8;;;6.7;;
74644;SDS011;63163;55.630;37.594;2023-04-16T22:51:32;12.7;;;6.6;;
74644;SDS011;63163;55.630;37.594;2023-04-16T22:52:33;12.6;;;6.1;;
74644;SDS011;63163;55.630;37.594;2023-04-16T22:53:33;12.7;;;6.6;;
74644;SDS011;63163;55.630;37.594;2023-04-16T22:54:34;13.5;;;5.8;;
74644;SDS011;63163;55.630;37.594;2023-04-16T22:55:35;12.3;;;6.8;;
74644;SDS011;63163;55.630;37.594;2023-04-16T22:56:35;12.4;;;6.4;;
74644;SDS011;63163;55.630;37.594;2023-04-16T22:57:36;11.3;;;6.4;;
74644;SDS011;63163;55.630;37.594;2023-04-16T22:58:36;13.2;;;6.7;;
74644;SDS011;63163;55.630;37.594;2023-04-16T22:59:37;13.8;;;6.6;;
74644;SDS011;63163;55.630;37.594;2023-04-16T23:00:38;12.3;;;6.5;;
74644;SDS011;63163;55.630;37.594;2023-04-16T23:01:38;11.4;;;6.6;;
74644;SDS011;63163;55.630;37.594;2023-04-16T23:02:41;14.3;;;6.8;;
74644;SDS011;63163;55.630;37.594;2023-04-16T23:03:42;13.2;;;7.1;;
74644;SDS011;63163;55.630;37.594;2023-04-16T23:04:42;15.0;;;6.8;;
74644;SDS011;63163;55.630;37.594;2023-04-16T23:05:43;13.0;;;6.5;;
74644;SDS011;63163;55.630;37.594;2023-04-16T23:06:43;12.8;;;6.7;;
74644;SDS011;63163;55.630;37.594;2023-04-16T23:07:44;14.0;;;6.2;;
74644;SDS011;63163;55.630;37.594;2023-04-16T23:08:44;12.5;;;6.0;;
74644;SDS011;63163;55.630;37.594;2023-04-16T23:09:45;15.2;;;6.6;;
74644;SDS011;63163;55.630;37.594;2023-04-16T23:10:46;13.6;;;6.3;;
74644;SDS011;63163;55.630;37.594;2023-04-16T23:11:46;13.0;;;6.1;;
74644;SDS011;63163;55.630;37.594;2023-04-16T23:12:47;13.3;;;6.7;;
74644;SDS011;63163;55.630;37.594;2023-04-16T23:13:47;13.3;;;7.2;;
74644;SDS011;63163;55.630;37.594;2023-04-16T23:14:48;13.3;;;6.8;;
74644;SDS011;63163;55.630;37.594;2023-04-16T23:15:48;13.3;;;6.8;;
74644;SDS011;63163;55.630;37.594;2023-04-16T23:16:49;12.2;;;6.7;;
74644;SDS011;63163;55.630;37.594;2023-04-16T23:17:49;12.2;;;5.8;;
74644;SDS011;63163;55.630;37.594;2023-04-16T23:18:50;12.4;;;6.2;;
74644;SDS011;63163;55.630;37.594;2023-04-16T23:19:50;12.6;;;6.4;;
74644;SDS011;63163;55.630;37.594;2023-04-16T23:20:51;10.3;;;6.4;;
74644;SDS011;63163;55.630;37.594;2023-04-16T23:21:51;12.9;;;7.1;;
74644;SDS011;63163;55.630;37.594;2023-04-16T23:22:52;13.2;;;6.9;;
74644;SDS011;63163;55.630;37.594;2023-04-16T23:23:52;13.6;;;6.2;;
74644;SDS011;63163;55.630;37.594;2023-04-16T23:24:53;10.4;;;6.1;;
74644;SDS011;63163;55.630;37.594;2023-04-16T23:25:54;11.4;;;6.2;;
74644;SDS011;63163;55.630;37.594;2023-04-16T23:26:54;13.0;;;6.5;;
74644;SDS011;63163;55.630;37.594;2023-04-16T23:27:55;11.1;;;6.7;;
74644;SDS011;63163;55.630;37.594;2023-04-16T23:28:55;14.1;;;6.8;;
74644;SDS011;63163;55.630;37.594;2023-04-16T23:29:56;13.2;;;6.8;;
74644;SDS011;63163;55.630;37.594;2023-04-16T23:30:57;12.3;;;6.8;;
74644;SDS011;63163;55.630;37.594;2023-04-16T23:31:57;12.9;;;6.7;;
74644;SDS011;63163;55.630;37.594;2023-04-16T23:32:58;14.2;;;7.2;;
74644;SDS011;63163;55.630;37.594;2023-04-16T23:33:58;15.2;;;6.9;;
74644;SDS011;63163;55.630;37.594;2023-04-16T23:34:59;15.9;;;7.0;;
74644;SDS011;63163;55.630;37.594;2023-04-16T23:36:00;14.7;;;7.1;;
74644;SDS011;63163;55.630;37.594;2023-04-16T23:37:00;13.6;;;6.9;;
74644;SDS011;63163;55.630;37.594;2023-04-16T23:38:01;15.1;;;7.4;;
74644;SDS011;63163;55.630;37.594;2023-04-16T23:39:02;14.1;;;7.3;;
74644;SDS011;63163;55.630;37.594;2023-04-16T23:40:02;12.6;;;7.1;;
74644;SDS011;63163;55.630;37.594;2023-04-16T23:41:04;12.3;;;7.3;;
74644;SDS011;63163;55.630;37.594;2023-04-16T23:42:04;15.2;;;7.1;;
74644;SDS011;63163;55.630;37.594;2023-04-16T23:43:05;14.0;;;6.9;;
74644;SDS011;63163;55.630;37.594;2023-04-16T23:44:05;14.4;;;7.2;;
74644;SDS011;63163;55.630;37.594;2023-04-16T23:45:07;14.6;;;7.7;;
74644;SDS011;63163;55.630;37.594;2023-04-16T23:46:07;11.4;;;6.8;;
74644;SDS011;63163;55.630;37.594;2023-04-16T23:47:08;15.9;;;6.8;;
74644;SDS011;63163;55.630;37.594;2023-04-16T23:48:08;13.4;;;7.2;;
74644;SDS011;63163;55.630;37.594;2023-04-16T23:49:09;12.5;;;6.8;;
74644;SDS011;63163;55.630;37.594;2023-04-16T23:50:10;14.6;;;7.4;;
74644;SDS011;63163;55.630;37.594;2023-04-16T23:51:10;13.9;;;7.2;;
74644;SDS011;63163;55.630;37.594;2023-04-16T23:52:11;16.7;;;7.5;;
74644;SDS011;63163;55.630;37.594;2023-04-16T23:53:11;17.3;;;7.4;;
74644;SDS011;63163;55.630;37.594;2023-04-16T23:54:12;12.8;;;7.1;;
74644;SDS011;63163;55.630;37.594;2023-04-16T23:55:12;12.7;;;7.1;;
74644;SDS011;63163;55.630;37.594;2023-04-16T23:56:13;14.7;;;7.2;;
74644;SDS011;63163;55.630;37.594;2023-04-16T23:57:14;12.4;;;6.9;;
74644;SDS011;63163;55.630;37.594;2023-04-16T23:58:15;12.9;;;6.9;;
74644;SDS011;63163;55.630;37.594;2023-04-16T23:59:15;14.6;;;7.2;;
